タリン の空港の天気 - METARとTAF

タリン空港 ( EETN / TLL ) - エストニア タリン
飛行場実況気象(Metar)
観測時間01/16 20:20 EET (01/16 18:20 UTC)
風向・風速西 10m/s
視程5000m
天気現象雨 雪
全天を覆う雲 雲底高度 180m
気温2℃
湿度100%
気圧989hPa
METAREETN 161820Z 26020KT 5000 RASN OVC006 02/02 Q0989 TEMPO 26020G32KT 3000
過去の天気等 Google飛行場航空写真 Wunderground天気予報

過去48時間のMETAR

飛行場予報(TAF)
発表時間: 1/16 19:10 EET (1/16 17:10 UTC)
予報対象時間: 16日20時 EET ~ 17日20時 EET
風向・風速西南西 6m/s
視程6000m
全天の8割程度の雲 雲底高度 240m
16日20時 EET ~ 16日22時 EET に一時的に
風向・風速西 11m/s 瞬間風速 16m/s
視程1500m
天気現象しゅう雨雪 もや
全天の8割程度の雲 雲底高度 90m
全天の8割程度の積乱雲 雲底高度 460m
16日22時 EET ~ 17日3時 EET に一時的に
全天の8割程度の雲 雲底高度 150m
17日3時 EET ~ 17日12時 EET に一時的に
視程800m
天気現象強いしゅう雪
全天の8割程度の雲 雲底高度 120m
全天の8割程度の積乱雲 雲底高度 400m
17日6時 EET ~ 17日10時 EET に一時的に
風向・風速西北西 5m/s
17日10時 EET ~ 17日11時 EET に徐々に
風向・風速北 12m/s 瞬間風速 21m/s
17日17時 EET ~ 17日20時 EET に一時的に
風向・風速北北西 10m/s 瞬間風速 17m/s
TAF EETN 161710Z 1618/1718 24012KT 6000 BKN008
TEMPO 1618/1620 26022G32KT 1500 SHRASN BR BKN003 BKN015CB
TEMPO 1620/1701 BKN005
TEMPO 1701/1710 0800 +SHSN BKN004 BKN013CB
TEMPO 1704/1708 30010KT
BECMG 1708/1709 35024G40KT
TEMPO 1715/1718 34020G34KT